Time;durP1;ratioP1;P1;durP2;ratioP2;P2;SDS_P1;SDS_P2;PMS_P1;PMS_P2;Temp;Humidity;BMP_temperature;BMP_pressure;BME280_temperature;BME280_humidity;BME280_pressure;Samples;Min_cycle;Max_cycle;Signal;HPM_P1;HPM_P2
2023/08/06 00:00:48;;;;;;;13.90;9.55;;;;;;;;;;8318608;28;20069;-88
2023/08/06 00:04:51;;;;;;;15.00;9.65;;;;;;;;;;8302598;28;20041;-88
2023/08/06 00:08:57;;;;;;;18.15;10.73;;;;;;;;;;8321356;28;20176;-88
2023/08/06 00:13:01;;;;;;;22.17;12.60;;;;;;;;;;8336352;28;20132;-87
2023/08/06 00:17:04;;;;;;;24.60;12.80;;;;;;;;;;8301797;28;20108;-88
2023/08/06 00:21:07;;;;;;;19.88;11.50;;;;;;;;;;8322979;28;20119;-87
2023/08/06 00:25:11;;;;;;;19.35;11.38;;;;;;;;;;8316537;28;20064;-87
2023/08/06 00:29:14;;;;;;;21.20;12.27;;;;;;;;;;8324488;28;20046;-88
2023/08/06 00:33:17;;;;;;;22.55;12.73;;;;;;;;;;8333935;28;20050;-88
2023/08/06 00:37:20;;;;;;;21.73;12.63;;;;;;;;;;8332221;28;20045;-87
2023/08/06 00:41:24;;;;;;;24.25;13.70;;;;;;;;;;8322086;28;20049;-88
2023/08/06 00:45:29;;;;;;;32.28;15.93;;;;;;;;;;8319962;28;20556;-87
2023/08/06 00:49:32;;;;;;;32.72;15.13;;;;;;;;;;8325056;28;20137;-89
2023/08/06 00:53:35;;;;;;;31.55;15.80;;;;;;;;;;8328557;28;20041;-87
2023/08/06 00:57:39;;;;;;;33.88;16.13;;;;;;;;;;8319565;28;20493;-88
2023/08/06 01:01:42;;;;;;;38.05;17.25;;;;;;;;;;8332891;28;20500;-87
2023/08/06 01:05:45;;;;;;;37.22;17.17;;;;;;;;;;8313401;28;20046;-88
2023/08/06 01:09:59;;;;;;;35.05;15.70;;;;;;;;;;8324349;28;20496;-85
2023/08/06 01:14:08;;;;;;;37.63;16.65;;;;;;;;;;8312992;28;20049;-87
2023/08/06 01:18:12;;;;;;;27.92;14.75;;;;;;;;;;8307396;28;20053;-86
2023/08/06 01:22:16;;;;;;;24.85;13.00;;;;;;;;;;8331755;28;20056;-87
2023/08/06 01:26:25;;;;;;;26.52;13.25;;;;;;;;;;8332209;28;20046;-89
2023/08/06 01:30:35;;;;;;;25.67;11.73;;;;;;;;;;8312592;28;20565;-87
2023/08/06 01:34:40;;;;;;;26.98;14.20;;;;;;;;;;8304562;28;20153;-87
2023/08/06 01:38:46;;;;;;;29.45;13.95;;;;;;;;;;8285145;28;20050;-94
2023/08/06 01:42:49;;;;;;;31.90;14.15;;;;;;;;;;8309790;28;20476;-87
2023/08/06 01:46:53;;;;;;;35.22;13.82;;;;;;;;;;8302610;28;20125;-87
2023/08/06 01:50:56;;;;;;;25.50;12.85;;;;;;;;;;8322356;28;20041;-92
2023/08/06 01:55:00;;;;;;;26.20;11.88;;;;;;;;;;8300302;28;20064;-88
2023/08/06 01:59:03;;;;;;;24.73;12.35;;;;;;;;;;8314487;28;20083;-88
2023/08/06 02:03:06;;;;;;;31.55;12.93;;;;;;;;;;8302570;28;20092;-87
2023/08/06 02:07:08;;;;;;;34.13;14.40;;;;;;;;;;8303964;28;20535;-86
2023/08/06 02:11:19;;;;;;;27.10;11.68;;;;;;;;;;8318313;28;20052;-95
2023/08/06 02:15:21;;;;;;;31.92;11.93;;;;;;;;;;8287528;28;20133;-88
2023/08/06 02:19:24;;;;;;;34.78;13.55;;;;;;;;;;8309463;28;20049;-89
2023/08/06 02:23:28;;;;;;;36.55;13.43;;;;;;;;;;8310684;28;20101;-88
2023/08/06 02:27:32;;;;;;;37.70;14.10;;;;;;;;;;8319724;28;20055;-88
2023/08/06 02:31:35;;;;;;;36.08;13.35;;;;;;;;;;8315600;28;20037;-87
2023/08/06 02:35:39;;;;;;;40.10;12.48;;;;;;;;;;8323670;28;20045;-87
2023/08/06 02:39:43;;;;;;;36.22;13.93;;;;;;;;;;8277426;28;20053;-87
2023/08/06 02:43:47;;;;;;;33.50;13.43;;;;;;;;;;8325077;28;20061;-87
2023/08/06 02:47:50;;;;;;;31.90;13.07;;;;;;;;;;8297479;28;20064;-86
2023/08/06 02:51:53;;;;;;;23.80;12.07;;;;;;;;;;8322821;28;20054;-87
2023/08/06 02:55:57;;;;;;;30.50;12.48;;;;;;;;;;8302202;28;20444;-87
2023/08/06 03:00:01;;;;;;;25.25;11.75;;;;;;;;;;8329573;28;20045;-88
2023/08/06 03:04:04;;;;;;;27.25;12.85;;;;;;;;;;8342634;28;20568;-86
2023/08/06 03:08:07;;;;;;;23.83;11.68;;;;;;;;;;8318416;28;20080;-87
2023/08/06 03:12:10;;;;;;;22.67;11.68;;;;;;;;;;8295898;28;20718;-87
2023/08/06 03:16:15;;;;;;;27.35;12.50;;;;;;;;;;8320174;28;20124;-86
2023/08/06 03:20:18;;;;;;;21.48;10.77;;;;;;;;;;8342637;28;20057;-87
2023/08/06 03:24:21;;;;;;;22.58;12.13;;;;;;;;;;8329713;28;20038;-87
2023/08/06 03:28:24;;;;;;;22.95;10.90;;;;;;;;;;8332937;28;20125;-88
2023/08/06 03:32:28;;;;;;;22.33;11.82;;;;;;;;;;8346888;28;20049;-87
2023/08/06 03:36:31;;;;;;;23.05;11.48;;;;;;;;;;8337479;28;20131;-86
2023/08/06 03:40:37;;;;;;;24.33;10.82;;;;;;;;;;8335793;28;20077;-89
2023/08/06 03:44:40;;;;;;;16.48;9.13;;;;;;;;;;8335941;28;20077;-87
2023/08/06 03:48:44;;;;;;;20.02;10.40;;;;;;;;;;8348181;28;20049;-87
2023/08/06 03:52:47;;;;;;;19.42;10.32;;;;;;;;;;8334626;28;20171;-86
2023/08/06 03:56:50;;;;;;;16.95;9.77;;;;;;;;;;8346157;28;20068;-86
2023/08/06 04:00:59;;;;;;;19.88;11.38;;;;;;;;;;8335369;28;20565;-87
2023/08/06 04:05:04;;;;;;;18.65;10.18;;;;;;;;;;8311503;28;20119;-86
2023/08/06 04:09:07;;;;;;;13.40;8.77;;;;;;;;;;8333990;28;20120;-87
2023/08/06 04:13:11;;;;;;;14.90;8.82;;;;;;;;;;8331714;28;20079;-87
2023/08/06 04:17:15;;;;;;;19.40;11.13;;;;;;;;;;8320484;28;20107;-86
2023/08/06 04:21:20;;;;;;;15.68;9.20;;;;;;;;;;8333587;28;20096;-87
2023/08/06 04:25:23;;;;;;;18.60;9.45;;;;;;;;;;8333379;28;20045;-88
2023/08/06 04:29:26;;;;;;;16.42;9.23;;;;;;;;;;8341544;28;20044;-87
2023/08/06 04:33:29;;;;;;;20.38;10.93;;;;;;;;;;8333624;28;20478;-87
2023/08/06 04:37:33;;;;;;;20.05;10.32;;;;;;;;;;8333039;28;20408;-86
2023/08/06 04:41:36;;;;;;;19.77;10.73;;;;;;;;;;8333470;28;20131;-86
2023/08/06 04:45:39;;;;;;;20.13;11.80;;;;;;;;;;8345886;28;20245;-86
2023/08/06 04:49:42;;;;;;;21.30;11.68;;;;;;;;;;8334401;28;20485;-87
2023/08/06 04:53:46;;;;;;;21.45;11.43;;;;;;;;;;8335314;28;20096;-89
2023/08/06 04:57:50;;;;;;;24.33;11.93;;;;;;;;;;8313107;28;20080;-89
2023/08/06 05:01:53;;;;;;;22.52;11.90;;;;;;;;;;8319567;28;20453;-88
2023/08/06 05:05:56;;;;;;;19.67;11.75;;;;;;;;;;8333460;28;20497;-88
2023/08/06 05:10:00;;;;;;;19.98;12.35;;;;;;;;;;8308204;28;20121;-91
2023/08/06 05:14:03;;;;;;;19.88;11.77;;;;;;;;;;8314340;28;20458;-87
2023/08/06 05:18:06;;;;;;;18.45;11.80;;;;;;;;;;8325662;28;20064;-89
2023/08/06 05:22:10;;;;;;;20.58;12.65;;;;;;;;;;8512186;23;20140;-88
2023/08/06 05:26:18;;;;;;;21.20;12.25;;;;;;;;;;8360315;28;20136;-89
2023/08/06 05:30:21;;;;;;;18.48;11.55;;;;;;;;;;8359140;28;20076;-87
2023/08/06 05:34:23;;;;;;;18.00;11.48;;;;;;;;;;8350234;28;20550;-89
2023/08/06 05:38:26;;;;;;;19.38;11.60;;;;;;;;;;8353559;28;20049;-89
2023/08/06 05:42:31;;;;;;;18.27;12.30;;;;;;;;;;8339120;28;20128;-89
2023/08/06 05:46:34;;;;;;;18.83;12.50;;;;;;;;;;8352523;28;20477;-89
2023/08/06 05:50:37;;;;;;;17.23;11.93;;;;;;;;;;8354834;28;20045;-88
2023/08/06 05:54:40;;;;;;;17.00;11.20;;;;;;;;;;8339111;28;20128;-92
2023/08/06 05:58:46;;;;;;;20.27;12.18;;;;;;;;;;8352765;28;20486;-90
2023/08/06 06:02:49;;;;;;;18.13;12.52;;;;;;;;;;8354534;28;20541;-87
2023/08/06 06:06:52;;;;;;;17.75;11.98;;;;;;;;;;8362767;28;20049;-91
2023/08/06 06:10:55;;;;;;;16.25;10.88;;;;;;;;;;8364853;28;20112;-88
2023/08/06 06:15:00;;;;;;;18.55;11.27;;;;;;;;;;8353685;28;20049;-88
2023/08/06 06:19:04;;;;;;;17.05;11.38;;;;;;;;;;8340765;28;20049;-87
2023/08/06 06:23:07;;;;;;;16.63;11.57;;;;;;;;;;8341455;28;20067;-88
2023/08/06 06:27:10;;;;;;;18.15;11.90;;;;;;;;;;8364492;28;20418;-88
2023/08/06 06:31:14;;;;;;;16.05;11.77;;;;;;;;;;8364396;28;20131;-88
2023/08/06 06:35:17;;;;;;;16.83;10.75;;;;;;;;;;8363840;28;20072;-90
2023/08/06 06:39:27;;;;;;;14.07;10.50;;;;;;;;;;8341892;28;20470;-95
2023/08/06 06:43:30;;;;;;;16.65;11.05;;;;;;;;;;8351678;28;20481;-90
2023/08/06 06:47:35;;;;;;;15.77;11.07;;;;;;;;;;8346491;28;20037;-92
2023/08/06 06:51:38;;;;;;;12.60;9.98;;;;;;;;;;8332997;28;20055;-89
2023/08/06 06:55:41;;;;;;;14.38;10.52;;;;;;;;;;8347579;28;20051;-90
2023/08/06 07:04:33;;;;;;;13.75;10.70;;;;;;;;;;8356424;28;20049;-95
2023/08/06 07:08:36;;;;;;;14.18;9.68;;;;;;;;;;8359304;28;20056;-90
2023/08/06 07:12:39;;;;;;;13.73;10.10;;;;;;;;;;8342404;28;20110;-89
2023/08/06 07:16:46;;;;;;;16.73;10.20;;;;;;;;;;8340789;28;20053;-89
2023/08/06 07:20:51;;;;;;;13.60;9.95;;;;;;;;;;8345582;28;20053;-92
2023/08/06 07:24:54;;;;;;;14.00;10.45;;;;;;;;;;8336198;28;20079;-88
2023/08/06 07:29:00;;;;;;;13.75;10.13;;;;;;;;;;8347252;28;20049;-96
2023/08/06 07:33:03;;;;;;;14.20;10.50;;;;;;;;;;8354947;28;20098;-90
2023/08/06 07:37:08;;;;;;;15.05;10.77;;;;;;;;;;8342209;28;20119;-89
2023/08/06 07:41:15;;;;;;;15.88;10.98;;;;;;;;;;8352858;22;20065;-90
2023/08/06 07:45:18;;;;;;;14.00;10.98;;;;;;;;;;8347456;28;20124;-88
2023/08/06 07:49:21;;;;;;;15.05;11.13;;;;;;;;;;8300951;28;20387;-88
2023/08/06 07:53:29;;;;;;;15.90;11.32;;;;;;;;;;8309458;28;20537;-87
2023/08/06 07:57:32;;;;;;;16.65;11.02;;;;;;;;;;8324173;28;20069;-88
2023/08/06 08:01:35;;;;;;;15.30;10.93;;;;;;;;;;8322420;28;20052;-87
2023/08/06 08:05:38;;;;;;;16.50;11.30;;;;;;;;;;8349150;28;20136;-88
2023/08/06 08:09:43;;;;;;;16.17;11.73;;;;;;;;;;8335961;28;20469;-88
2023/08/06 08:13:46;;;;;;;15.05;11.52;;;;;;;;;;8349791;28;20456;-89
2023/08/06 08:17:50;;;;;;;15.73;11.48;;;;;;;;;;8314197;28;20111;-90
2023/08/06 08:21:54;;;;;;;18.30;11.60;;;;;;;;;;8311654;28;20049;-92
2023/08/06 08:25:59;;;;;;;16.75;11.82;;;;;;;;;;8322762;28;20060;-88
2023/08/06 08:30:02;;;;;;;15.40;11.38;;;;;;;;;;8323605;28;20072;-93
2023/08/06 08:34:05;;;;;;;15.52;11.77;;;;;;;;;;8322895;28;20037;-92
2023/08/06 08:38:08;;;;;;;15.95;12.43;;;;;;;;;;8335525;28;20079;-89
2023/08/06 08:42:14;;;;;;;16.85;11.50;;;;;;;;;;8348145;28;20053;-89
2023/08/06 08:46:17;;;;;;;14.85;11.85;;;;;;;;;;8318568;28;20092;-90
2023/08/06 08:50:20;;;;;;;16.85;12.00;;;;;;;;;;8327941;28;20425;-89
2023/08/06 08:54:24;;;;;;;17.50;12.10;;;;;;;;;;8304724;28;20056;-88
2023/08/06 08:58:29;;;;;;;18.40;12.90;;;;;;;;;;8300484;28;20042;-89
2023/08/06 09:02:34;;;;;;;17.67;13.00;;;;;;;;;;8331600;28;20048;-88
2023/08/06 09:06:41;;;;;;;16.27;12.45;;;;;;;;;;8332569;28;20171;-89
2023/08/06 09:10:59;;;;;;;15.63;12.07;;;;;;;;;;8312098;28;20049;-90
2023/08/06 09:15:18;;;;;;;15.02;11.35;;;;;;;;;;8301876;28;20498;-88
2023/08/06 09:19:25;;;;;;;14.00;10.40;;;;;;;;;;8310647;28;20421;-88
2023/08/06 09:23:33;;;;;;;12.05;10.63;;;;;;;;;;8312390;28;20045;-89
2023/08/06 09:27:37;;;;;;;12.05;9.95;;;;;;;;;;8298401;28;20061;-88
2023/08/06 09:31:46;;;;;;;12.20;9.95;;;;;;;;;;8296752;28;20060;-90
2023/08/06 09:35:49;;;;;;;11.10;9.45;;;;;;;;;;8301130;28;20072;-89
2023/08/06 09:39:53;;;;;;;11.68;8.77;;;;;;;;;;8294462;28;20066;-90
2023/08/06 09:43:58;;;;;;;11.35;8.60;;;;;;;;;;8311183;28;20057;-90
2023/08/06 09:48:05;;;;;;;12.13;8.38;;;;;;;;;;8303069;28;20468;-92
2023/08/06 09:52:13;;;;;;;10.43;7.68;;;;;;;;;;8307046;28;20053;-90
2023/08/06 09:56:18;;;;;;;10.55;8.20;;;;;;;;;;8315386;28;20050;-92
2023/08/06 10:00:24;;;;;;;13.18;8.05;;;;;;;;;;8301461;28;20058;-90
2023/08/06 10:04:31;;;;;;;10.27;8.45;;;;;;;;;;8309168;28;20050;-90
2023/08/06 10:08:35;;;;;;;8.70;7.68;;;;;;;;;;8301253;28;20077;-90
2023/08/06 10:12:44;;;;;;;12.48;8.27;;;;;;;;;;8293592;28;20046;-92
2023/08/06 10:16:49;;;;;;;9.07;7.68;;;;;;;;;;8302875;28;20490;-92
2023/08/06 10:20:54;;;;;;;9.63;7.82;;;;;;;;;;8311621;28;20045;-91
2023/08/06 10:25:01;;;;;;;9.98;7.60;;;;;;;;;;8309132;28;20042;-90
2023/08/06 10:29:37;;;;;;;10.77;7.47;;;;;;;;;;8324551;28;20037;-92
2023/08/06 10:33:44;;;;;;;10.45;7.70;;;;;;;;;;8318558;28;20115;-88
2023/08/06 10:37:49;;;;;;;8.10;6.72;;;;;;;;;;8329779;28;20120;-89
2023/08/06 10:41:52;;;;;;;9.52;7.00;;;;;;;;;;8316995;28;20049;-92
2023/08/06 10:45:55;;;;;;;8.23;6.50;;;;;;;;;;8320295;28;20454;-90
2023/08/06 10:49:59;;;;;;;9.00;6.80;;;;;;;;;;8296785;28;20533;-93
2023/08/06 10:54:13;;;;;;;8.05;6.28;;;;;;;;;;8357070;23;20122;-91
2023/08/06 10:58:22;;;;;;;8.05;6.78;;;;;;;;;;8310436;28;20067;-93
2023/08/06 11:02:30;;;;;;;8.23;6.20;;;;;;;;;;8320026;28;20473;-94
2023/08/06 11:06:35;;;;;;;5.40;4.38;;;;;;;;;;8429952;22;20053;-90
2023/08/06 11:10:53;;;;;;;7.32;5.00;;;;;;;;;;8328380;28;20550;-90
2023/08/06 11:15:14;;;;;;;8.98;6.43;;;;;;;;;;8325811;28;20061;-94
2023/08/06 11:19:17;;;;;;;6.22;4.25;;;;;;;;;;8333054;28;20408;-94
2023/08/06 11:23:20;;;;;;;4.22;3.20;;;;;;;;;;8350680;28;20041;-91
2023/08/06 11:27:24;;;;;;;3.95;2.88;;;;;;;;;;8337982;28;20111;-93
2023/08/06 11:31:27;;;;;;;7.07;4.13;;;;;;;;;;8348608;28;20069;-92
2023/08/06 11:35:31;;;;;;;6.20;3.67;;;;;;;;;;8343057;28;20059;-91
2023/08/06 11:39:34;;;;;;;4.95;3.67;;;;;;;;;;8329893;28;20046;-91
2023/08/06 11:43:39;;;;;;;3.53;2.67;;;;;;;;;;8342356;28;20049;-88
2023/08/06 11:47:43;;;;;;;3.67;2.60;;;;;;;;;;8343062;28;20045;-89
2023/08/06 11:51:46;;;;;;;6.50;3.10;;;;;;;;;;8332539;28;20061;-90
2023/08/06 11:55:50;;;;;;;6.72;3.20;;;;;;;;;;8330038;28;20111;-93
2023/08/06 11:59:55;;;;;;;4.90;2.45;;;;;;;;;;8347186;28;20063;-89
2023/08/06 12:04:01;;;;;;;2.70;2.20;;;;;;;;;;8327953;28;20102;-89
2023/08/06 12:08:05;;;;;;;3.60;2.28;;;;;;;;;;8345411;28;20081;-93
2023/08/06 12:12:08;;;;;;;2.67;2.00;;;;;;;;;;8345892;28;20050;-89
2023/08/06 12:16:13;;;;;;;2.95;1.80;;;;;;;;;;8342773;28;20612;-93
2023/08/06 12:20:16;;;;;;;2.25;1.73;;;;;;;;;;8342627;28;20503;-90
2023/08/06 12:24:21;;;;;;;1.58;1.30;;;;;;;;;;8356076;28;20124;-92
2023/08/06 12:28:26;;;;;;;2.88;1.50;;;;;;;;;;8333193;28;20049;-91
2023/08/06 12:32:31;;;;;;;1.95;1.40;;;;;;;;;;8337465;28;20095;-90
2023/08/06 12:36:34;;;;;;;2.85;1.50;;;;;;;;;;8353559;28;20511;-92
2023/08/06 12:40:37;;;;;;;2.80;1.33;;;;;;;;;;8335887;28;20053;-91
2023/08/06 12:44:40;;;;;;;1.73;1.13;;;;;;;;;;8347700;28;20045;-91
2023/08/06 12:48:44;;;;;;;1.27;0.80;;;;;;;;;;8343967;28;20059;-90
2023/08/06 12:52:47;;;;;;;1.08;0.93;;;;;;;;;;8350266;28;20159;-89
2023/08/06 12:56:50;;;;;;;1.35;1.10;;;;;;;;;;8340457;28;20465;-89
2023/08/06 13:00:55;;;;;;;1.42;1.30;;;;;;;;;;8346689;28;20164;-91
2023/08/06 13:05:03;;;;;;;2.63;2.00;;;;;;;;;;8350028;28;20069;-91
2023/08/06 13:09:08;;;;;;;1.00;1.00;;;;;;;;;;8349992;28;20053;-90
2023/08/06 13:13:13;;;;;;;1.58;1.23;;;;;;;;;;8344513;28;20060;-90
2023/08/06 13:17:17;;;;;;;1.85;1.50;;;;;;;;;;8330513;28;20139;-90
2023/08/06 13:21:22;;;;;;;0.70;0.70;;;;;;;;;;8343636;28;20481;-89
2023/08/06 13:25:25;;;;;;;1.17;1.05;;;;;;;;;;8345464;28;20188;-89
2023/08/06 13:29:29;;;;;;;9.05;6.25;;;;;;;;;;8342981;28;20409;-90
2023/08/06 13:33:33;;;;;;;1.60;1.10;;;;;;;;;;8354286;28;20037;-88
2023/08/06 13:37:38;;;;;;;0.93;0.90;;;;;;;;;;8345962;28;20114;-89
2023/08/06 13:41:45;;;;;;;1.33;0.77;;;;;;;;;;8355841;28;20052;-92
2023/08/06 13:45:49;;;;;;;1.48;1.27;;;;;;;;;;8350105;28;20103;-91
2023/08/06 13:49:52;;;;;;;1.38;1.10;;;;;;;;;;8365401;28;20485;-90
2023/08/06 13:53:58;;;;;;;1.45;1.30;;;;;;;;;;8351733;28;20041;-88
2023/08/06 13:58:02;;;;;;;2.40;2.20;;;;;;;;;;8352848;28;20045;-90
2023/08/06 14:02:06;;;;;;;1.50;1.30;;;;;;;;;;8347278;28;20408;-90
2023/08/06 14:06:12;;;;;;;1.30;1.20;;;;;;;;;;8352411;28;20123;-91
2023/08/06 14:10:18;;;;;;;6.50;2.67;;;;;;;;;;8360951;28;20393;-89
2023/08/06 14:14:26;;;;;;;5.95;4.72;;;;;;;;;;8349360;28;20084;-88
2023/08/06 14:18:29;;;;;;;1.35;1.25;;;;;;;;;;8363552;28;20124;-88
2023/08/06 14:22:33;;;;;;;3.17;1.40;;;;;;;;;;8350193;28;20087;-89
2023/08/06 14:26:38;;;;;;;3.85;1.30;;;;;;;;;;8350377;28;20646;-88
2023/08/06 14:30:41;;;;;;;2.20;1.60;;;;;;;;;;8349995;28;20055;-89
2023/08/06 14:34:45;;;;;;;2.80;1.67;;;;;;;;;;8362893;28;20386;-88
2023/08/06 14:38:50;;;;;;;2.50;1.70;;;;;;;;;;8362787;28;20052;-90
2023/08/06 14:42:55;;;;;;;2.75;1.70;;;;;;;;;;8350767;28;20242;-89
2023/08/06 14:47:00;;;;;;;2.35;2.15;;;;;;;;;;8362827;28;20069;-88
2023/08/06 14:51:03;;;;;;;4.97;2.22;;;;;;;;;;8358011;28;20039;-89
2023/08/06 14:55:07;;;;;;;2.00;1.80;;;;;;;;;;8362539;28;20069;-91
2023/08/06 14:59:12;;;;;;;4.22;2.13;;;;;;;;;;8363079;28;20045;-89
2023/08/06 15:03:17;;;;;;;2.65;1.60;;;;;;;;;;8359513;28;20048;-88
2023/08/06 15:07:25;;;;;;;2.95;1.48;;;;;;;;;;8352926;28;20065;-88
2023/08/06 15:11:30;;;;;;;2.00;1.77;;;;;;;;;;8332098;28;20401;-89
2023/08/06 15:15:35;;;;;;;1.92;1.52;;;;;;;;;;8361984;28;20477;-88
2023/08/06 15:19:41;;;;;;;1.52;1.42;;;;;;;;;;8345313;28;20049;-89
2023/08/06 15:23:49;;;;;;;1.98;1.20;;;;;;;;;;8364733;28;20385;-89
2023/08/06 15:27:55;;;;;;;1.10;1.10;;;;;;;;;;8368871;28;20052;-89
2023/08/06 15:32:00;;;;;;;1.63;1.30;;;;;;;;;;8366952;28;20049;-89
2023/08/06 15:36:05;;;;;;;3.15;1.50;;;;;;;;;;8344157;28;20045;-89
2023/08/06 15:40:10;;;;;;;4.18;2.17;;;;;;;;;;8335466;28;20053;-88
2023/08/06 15:44:15;;;;;;;2.05;1.55;;;;;;;;;;8348293;28;20124;-87
2023/08/06 15:48:23;;;;;;;0.95;0.95;;;;;;;;;;8338994;28;20170;-87
2023/08/06 15:52:28;;;;;;;1.60;1.10;;;;;;;;;;8360071;28;20076;-88
2023/08/06 15:56:33;;;;;;;1.73;1.25;;;;;;;;;;8348381;28;20075;-93
2023/08/06 16:00:45;;;;;;;1.30;0.82;;;;;;;;;;8364721;28;20048;-89
2023/08/06 16:04:51;;;;;;;2.28;1.42;;;;;;;;;;8345380;28;20045;-88
2023/08/06 16:08:55;;;;;;;0.65;0.65;;;;;;;;;;8348750;28;20061;-88
2023/08/06 16:12:59;;;;;;;1.70;1.10;;;;;;;;;;8360057;28;20076;-87
2023/08/06 16:17:04;;;;;;;1.50;0.65;;;;;;;;;;8352504;28;20064;-88
2023/08/06 16:21:10;;;;;;;0.75;0.70;;;;;;;;;;8347325;28;20135;-87
2023/08/06 16:25:15;;;;;;;1.45;0.90;;;;;;;;;;8347658;28;20132;-87
2023/08/06 16:29:21;;;;;;;1.15;0.57;;;;;;;;;;8353734;28;20555;-87
2023/08/06 16:33:25;;;;;;;1.05;0.80;;;;;;;;;;8349375;28;20503;-87
2023/08/06 16:37:31;;;;;;;0.95;0.75;;;;;;;;;;8316404;28;20041;-87
2023/08/06 16:41:36;;;;;;;1.45;0.60;;;;;;;;;;8344794;28;20459;-87
2023/08/06 16:45:39;;;;;;;0.60;0.60;;;;;;;;;;8353596;28;20041;-89
2023/08/06 16:49:43;;;;;;;0.82;0.82;;;;;;;;;;8342722;28;20046;-93
2023/08/06 16:53:50;;;;;;;0.98;0.90;;;;;;;;;;8341267;28;20049;-88
2023/08/06 16:57:53;;;;;;;1.27;0.70;;;;;;;;;;8364622;28;20481;-89
2023/08/06 17:01:59;;;;;;;2.25;0.80;;;;;;;;;;8344337;28;20394;-89
2023/08/06 17:06:14;;;;;;;0.77;0.77;;;;;;;;;;8316320;28;20049;-89
2023/08/06 17:10:22;;;;;;;1.10;0.90;;;;;;;;;;8304328;28;20075;-87
2023/08/06 17:14:30;;;;;;;2.90;2.38;;;;;;;;;;8311027;28;20110;-90
2023/08/06 17:18:37;;;;;;;29.65;17.90;;;;;;;;;;8334176;22;20057;-88
2023/08/06 17:22:43;;;;;;;20.15;11.60;;;;;;;;;;8320158;28;20197;-88
2023/08/06 17:26:58;;;;;;;8.63;5.65;;;;;;;;;;8357406;28;20075;-90
2023/08/06 17:31:07;;;;;;;10.85;7.45;;;;;;;;;;8372594;23;20064;-87
2023/08/06 17:35:14;;;;;;;12.48;9.30;;;;;;;;;;8312869;28;20124;-88
2023/08/06 17:39:33;;;;;;;22.38;16.75;;;;;;;;;;8543733;22;20124;-86
2023/08/06 17:43:43;;;;;;;5.68;3.42;;;;;;;;;;8315155;28;20064;-89
2023/08/06 17:48:01;;;;;;;3.37;2.07;;;;;;;;;;8307827;28;20049;-88
2023/08/06 17:52:19;;;;;;;3.30;1.23;;;;;;;;;;8307530;28;20037;-87
2023/08/06 17:56:24;;;;;;;2.30;1.10;;;;;;;;;;8308940;28;20045;-89
2023/08/06 18:00:29;;;;;;;5.43;1.42;;;;;;;;;;8312554;28;20084;-91
2023/08/06 18:04:34;;;;;;;1.52;1.33;;;;;;;;;;8310246;28;20049;-90
2023/08/06 18:08:38;;;;;;;4.28;1.50;;;;;;;;;;8306663;28;20084;-89
2023/08/06 18:12:43;;;;;;;4.07;1.88;;;;;;;;;;8314125;28;20046;-93
2023/08/06 18:16:49;;;;;;;2.88;1.52;;;;;;;;;;8287616;28;20058;-89
2023/08/06 18:20:54;;;;;;;4.18;2.15;;;;;;;;;;8302771;28;20045;-92
2023/08/06 18:25:01;;;;;;;2.97;1.92;;;;;;;;;;8299723;28;20041;-89
2023/08/06 18:29:05;;;;;;;3.42;1.95;;;;;;;;;;8309332;28;20041;-93
2023/08/06 18:33:11;;;;;;;1.48;1.15;;;;;;;;;;8316415;28;20053;-90
2023/08/06 18:37:15;;;;;;;1.85;1.30;;;;;;;;;;8305043;28;20050;-90
2023/08/06 18:41:21;;;;;;;3.25;1.52;;;;;;;;;;8313058;28;20123;-88
2023/08/06 18:45:25;;;;;;;3.30;1.77;;;;;;;;;;8319428;28;20041;-92
2023/08/06 18:49:30;;;;;;;2.83;1.77;;;;;;;;;;8309077;28;20413;-87
2023/08/06 18:53:34;;;;;;;2.22;1.40;;;;;;;;;;8298880;28;20052;-89
2023/08/06 18:57:40;;;;;;;4.13;1.90;;;;;;;;;;8311956;28;20096;-89
2023/08/06 19:01:45;;;;;;;8.55;3.38;;;;;;;;;;8326664;28;20444;-90
2023/08/06 19:05:54;;;;;;;2.55;1.35;;;;;;;;;;8303763;28;20057;-89
2023/08/06 19:10:00;;;;;;;1.30;1.20;;;;;;;;;;8316688;28;20045;-89
2023/08/06 19:14:06;;;;;;;2.67;1.20;;;;;;;;;;8307233;28;20049;-87
2023/08/06 19:18:10;;;;;;;2.33;1.20;;;;;;;;;;8322589;28;20401;-88
2023/08/06 19:22:15;;;;;;;6.07;1.50;;;;;;;;;;8323767;28;20045;-88
2023/08/06 19:26:21;;;;;;;3.20;1.30;;;;;;;;;;8309457;28;20053;-87
2023/08/06 19:30:27;;;;;;;3.17;1.70;;;;;;;;;;8317888;28;20042;-88
2023/08/06 19:34:32;;;;;;;1.80;1.33;;;;;;;;;;8310020;28;20132;-88
2023/08/06 19:38:44;;;;;;;3.55;1.58;;;;;;;;;;8308997;28;20049;-88
2023/08/06 19:42:49;;;;;;;4.47;1.33;;;;;;;;;;8303887;28;20056;-87
2023/08/06 19:46:54;;;;;;;4.60;1.10;;;;;;;;;;8317706;28;20042;-86
2023/08/06 19:51:01;;;;;;;1.48;1.17;;;;;;;;;;8298875;28;20080;-86
2023/08/06 19:55:07;;;;;;;1.15;1.00;;;;;;;;;;8323728;28;20049;-88
2023/08/06 19:59:13;;;;;;;1.70;0.90;;;;;;;;;;8317487;28;20045;-86
2023/08/06 20:03:19;;;;;;;1.90;1.08;;;;;;;;;;8307650;28;20124;-89
2023/08/06 20:07:22;;;;;;;2.85;1.50;;;;;;;;;;8309650;28;20482;-87
2023/08/06 20:11:30;;;;;;;0.90;0.90;;;;;;;;;;8308955;28;20115;-86
2023/08/06 20:15:36;;;;;;;1.85;1.30;;;;;;;;;;8308654;28;20094;-88
2023/08/06 20:19:40;;;;;;;0.90;0.90;;;;;;;;;;8301795;28;20447;-87
2023/08/06 20:23:44;;;;;;;3.17;1.20;;;;;;;;;;8301071;28;20076;-88
2023/08/06 20:27:48;;;;;;;0.98;0.98;;;;;;;;;;8314561;28;20112;-89
2023/08/06 20:31:52;;;;;;;1.27;1.08;;;;;;;;;;8318995;28;20048;-90
2023/08/06 20:35:57;;;;;;;1.88;1.40;;;;;;;;;;8293238;28;20053;-89
2023/08/06 20:40:02;;;;;;;4.38;1.50;;;;;;;;;;8307519;28;20058;-89
2023/08/06 20:44:08;;;;;;;2.75;1.55;;;;;;;;;;8290351;28;20052;-87
2023/08/06 20:48:12;;;;;;;3.75;1.50;;;;;;;;;;8312694;28;20048;-88
2023/08/06 20:52:15;;;;;;;1.38;1.15;;;;;;;;;;8300389;28;20037;-87
2023/08/06 20:56:19;;;;;;;2.42;1.20;;;;;;;;;;8318387;28;20124;-87
2023/08/06 21:00:24;;;;;;;1.20;1.10;;;;;;;;;;8312661;28;20052;-86
2023/08/06 21:04:27;;;;;;;1.20;1.10;;;;;;;;;;8314007;28;20041;-90
2023/08/06 21:08:30;;;;;;;1.27;1.00;;;;;;;;;;8293768;28;20115;-90
2023/08/06 21:12:33;;;;;;;2.63;1.13;;;;;;;;;;8323183;28;20056;-86
2023/08/06 21:16:39;;;;;;;1.20;1.10;;;;;;;;;;8311231;28;20109;-91
2023/08/06 21:20:42;;;;;;;2.63;1.02;;;;;;;;;;8314278;28;20077;-88
2023/08/06 21:24:44;;;;;;;2.33;0.77;;;;;;;;;;8319032;28;20454;-91
2023/08/06 21:28:47;;;;;;;2.55;0.90;;;;;;;;;;8306962;28;20129;-91
2023/08/06 21:32:51;;;;;;;2.08;1.17;;;;;;;;;;8308415;28;20046;-89
2023/08/06 21:36:54;;;;;;;1.17;1.08;;;;;;;;;;8299991;28;20045;-87
2023/08/06 21:41:03;;;;;;;1.27;1.20;;;;;;;;;;8298303;28;20058;-88
2023/08/06 21:45:07;;;;;;;2.50;1.05;;;;;;;;;;8298302;28;20052;-88
2023/08/06 21:49:11;;;;;;;1.00;1.00;;;;;;;;;;8298825;28;20099;-88
2023/08/06 21:53:17;;;;;;;1.00;1.00;;;;;;;;;;8289666;28;20129;-87
2023/08/06 21:57:19;;;;;;;1.20;1.10;;;;;;;;;;8295709;28;20050;-87
2023/08/06 22:01:22;;;;;;;1.20;0.95;;;;;;;;;;8313221;28;20098;-87
2023/08/06 22:05:27;;;;;;;1.23;1.13;;;;;;;;;;8299265;28;20504;-87
2023/08/06 22:09:29;;;;;;;1.50;1.40;;;;;;;;;;8297994;28;20053;-88
2023/08/06 22:13:32;;;;;;;1.70;1.60;;;;;;;;;;8319341;28;20100;-89
2023/08/06 22:17:35;;;;;;;2.53;1.58;;;;;;;;;;8309750;28;20053;-86
2023/08/06 22:21:40;;;;;;;1.50;1.40;;;;;;;;;;8296042;28;20390;-88
2023/08/06 22:25:43;;;;;;;3.45;1.50;;;;;;;;;;8301167;28;20049;-90
2023/08/06 22:29:45;;;;;;;2.47;1.52;;;;;;;;;;8315496;28;20041;-88
2023/08/06 22:33:48;;;;;;;3.33;1.48;;;;;;;;;;8302144;28;20129;-87
2023/08/06 22:37:52;;;;;;;1.92;1.63;;;;;;;;;;8294898;28;20041;-88
2023/08/06 22:41:55;;;;;;;1.52;1.40;;;;;;;;;;8321499;28;20059;-88
2023/08/06 22:45:58;;;;;;;3.25;1.55;;;;;;;;;;8307985;28;20050;-88
2023/08/06 22:50:03;;;;;;;2.33;1.50;;;;;;;;;;8296872;28;20054;-88
2023/08/06 22:54:07;;;;;;;7.22;2.00;;;;;;;;;;8305651;28;20145;-89
2023/08/06 22:58:10;;;;;;;1.83;1.63;;;;;;;;;;8316803;28;20053;-91
2023/08/06 23:02:13;;;;;;;3.97;1.80;;;;;;;;;;8297133;28;20103;-88
2023/08/06 23:06:16;;;;;;;3.88;2.13;;;;;;;;;;8303538;28;20553;-87
2023/08/06 23:10:20;;;;;;;3.63;1.60;;;;;;;;;;8304579;28;20053;-90
2023/08/06 23:14:23;;;;;;;5.25;1.70;;;;;;;;;;8307001;28;20215;-90
2023/08/06 23:18:26;;;;;;;2.40;1.73;;;;;;;;;;8301115;28;20050;-87
2023/08/06 23:22:29;;;;;;;3.35;1.77;;;;;;;;;;8294292;28;20100;-89
2023/08/06 23:26:33;;;;;;;3.50;1.60;;;;;;;;;;8313172;28;20493;-88
2023/08/06 23:30:36;;;;;;;1.77;1.60;;;;;;;;;;8294727;28;20061;-87
2023/08/06 23:34:39;;;;;;;3.33;1.60;;;;;;;;;;8294639;28;20042;-91
2023/08/06 23:38:42;;;;;;;1.92;1.50;;;;;;;;;;8282858;28;20863;-92
2023/08/06 23:42:46;;;;;;;1.60;1.30;;;;;;;;;;8303594;28;20133;-88
2023/08/06 23:46:49;;;;;;;4.07;1.50;;;;;;;;;;8315241;28;20166;-88
2023/08/06 23:50:52;;;;;;;3.20;1.63;;;;;;;;;;8300562;28;20157;-89
2023/08/06 23:54:55;;;;;;;3.70;1.80;;;;;;;;;;8308925;28;20117;-88
2023/08/06 23:59:00;;;;;;;1.90;1.67;;;;;;;;;;8315216;28;20428;-89
